sensor_id;sensor_type;location;lat;lon;timestamp;P1;durP1;ratioP1;P2;durP2;ratioP2
12212;SDS011;6169;44.158;22.788;2024-02-04T00:02:12;18.15;;;7.95;;
12212;SDS011;6169;44.158;22.788;2024-02-04T00:07:15;10.15;;;5.28;;
12212;SDS011;6169;44.158;22.788;2024-02-04T00:12:18;8.25;;;4.70;;
12212;SDS011;6169;44.158;22.788;2024-02-04T00:17:20;8.68;;;5.20;;
12212;SDS011;6169;44.158;22.788;2024-02-04T00:22:23;6.70;;;4.60;;
12212;SDS011;6169;44.158;22.788;2024-02-04T00:27:25;5.72;;;3.47;;
12212;SDS011;6169;44.158;22.788;2024-02-04T00:32:27;5.43;;;4.45;;
12212;SDS011;6169;44.158;22.788;2024-02-04T00:37:31;5.85;;;3.92;;
12212;SDS011;6169;44.158;22.788;2024-02-04T00:42:33;7.20;;;4.05;;
12212;SDS011;6169;44.158;22.788;2024-02-04T00:47:35;6.07;;;4.32;;
12212;SDS011;6169;44.158;22.788;2024-02-04T00:52:39;6.63;;;4.07;;
12212;SDS011;6169;44.158;22.788;2024-02-04T00:57:41;6.18;;;4.53;;
12212;SDS011;6169;44.158;22.788;2024-02-04T01:02:43;5.50;;;4.45;;
12212;SDS011;6169;44.158;22.788;2024-02-04T01:07:47;6.40;;;3.70;;
12212;SDS011;6169;44.158;22.788;2024-02-04T01:12:49;6.43;;;3.58;;
12212;SDS011;6169;44.158;22.788;2024-02-04T01:17:51;3.80;;;3.20;;
12212;SDS011;6169;44.158;22.788;2024-02-04T01:22:55;5.70;;;4.00;;
12212;SDS011;6169;44.158;22.788;2024-02-04T01:27:57;6.88;;;3.78;;
12212;SDS011;6169;44.158;22.788;2024-02-04T01:32:59;5.82;;;3.80;;
12212;SDS011;6169;44.158;22.788;2024-02-04T01:38:03;8.60;;;4.28;;
12212;SDS011;6169;44.158;22.788;2024-02-04T01:43:05;5.35;;;3.55;;
12212;SDS011;6169;44.158;22.788;2024-02-04T01:48:07;6.90;;;3.58;;
12212;SDS011;6169;44.158;22.788;2024-02-04T01:53:10;5.65;;;2.70;;
12212;SDS011;6169;44.158;22.788;2024-02-04T01:58:13;5.80;;;4.22;;
12212;SDS011;6169;44.158;22.788;2024-02-04T02:03:15;14.27;;;5.72;;
12212;SDS011;6169;44.158;22.788;2024-02-04T02:08:19;13.75;;;6.60;;
12212;SDS011;6169;44.158;22.788;2024-02-04T02:13:22;9.93;;;5.53;;
12212;SDS011;6169;44.158;22.788;2024-02-04T02:18:29;5.70;;;3.72;;
12212;SDS011;6169;44.158;22.788;2024-02-04T02:23:40;4.90;;;3.17;;
12212;SDS011;6169;44.158;22.788;2024-02-04T02:28:53;6.35;;;2.75;;
12212;SDS011;6169;44.158;22.788;2024-02-04T02:33:55;4.85;;;3.10;;
12212;SDS011;6169;44.158;22.788;2024-02-04T02:38:58;4.63;;;3.10;;
12212;SDS011;6169;44.158;22.788;2024-02-04T02:44:10;5.80;;;3.50;;
12212;SDS011;6169;44.158;22.788;2024-02-04T02:49:13;5.85;;;3.80;;
12212;SDS011;6169;44.158;22.788;2024-02-04T02:54:16;6.47;;;3.95;;
12212;SDS011;6169;44.158;22.788;2024-02-04T02:59:19;5.22;;;3.08;;
12212;SDS011;6169;44.158;22.788;2024-02-04T03:04:21;11.85;;;3.25;;
12212;SDS011;6169;44.158;22.788;2024-02-04T03:09:23;5.13;;;3.17;;
12212;SDS011;6169;44.158;22.788;2024-02-04T03:14:27;3.85;;;2.72;;
12212;SDS011;6169;44.158;22.788;2024-02-04T03:19:29;5.35;;;3.38;;
12212;SDS011;6169;44.158;22.788;2024-02-04T03:24:31;4.97;;;3.78;;
12212;SDS011;6169;44.158;22.788;2024-02-04T03:29:34;5.53;;;3.65;;
12212;SDS011;6169;44.158;22.788;2024-02-04T03:34:37;4.75;;;3.20;;
12212;SDS011;6169;44.158;22.788;2024-02-04T03:39:39;3.67;;;2.42;;
12212;SDS011;6169;44.158;22.788;2024-02-04T03:44:43;5.75;;;3.05;;
12212;SDS011;6169;44.158;22.788;2024-02-04T03:49:45;4.75;;;2.90;;
12212;SDS011;6169;44.158;22.788;2024-02-04T03:54:47;3.05;;;2.58;;
12212;SDS011;6169;44.158;22.788;2024-02-04T03:59:51;4.38;;;3.28;;
12212;SDS011;6169;44.158;22.788;2024-02-04T04:04:53;4.28;;;3.15;;
12212;SDS011;6169;44.158;22.788;2024-02-04T04:09:55;4.95;;;3.20;;
12212;SDS011;6169;44.158;22.788;2024-02-04T04:14:58;5.25;;;3.95;;
12212;SDS011;6169;44.158;22.788;2024-02-04T04:20:00;7.03;;;4.90;;
12212;SDS011;6169;44.158;22.788;2024-02-04T04:25:03;5.50;;;3.55;;
12212;SDS011;6169;44.158;22.788;2024-02-04T04:30:07;7.78;;;4.80;;
12212;SDS011;6169;44.158;22.788;2024-02-04T04:35:09;6.05;;;3.70;;
12212;SDS011;6169;44.158;22.788;2024-02-04T04:40:12;6.88;;;4.07;;
12212;SDS011;6169;44.158;22.788;2024-02-04T04:45:15;4.57;;;3.35;;
12212;SDS011;6169;44.158;22.788;2024-02-04T04:50:18;7.38;;;4.32;;
12212;SDS011;6169;44.158;22.788;2024-02-04T04:55:20;34.28;;;15.40;;
12212;SDS011;6169;44.158;22.788;2024-02-04T05:00:23;7.35;;;5.28;;
12212;SDS011;6169;44.158;22.788;2024-02-04T05:05:25;7.50;;;4.85;;
12212;SDS011;6169;44.158;22.788;2024-02-04T05:10:28;5.55;;;4.18;;
12212;SDS011;6169;44.158;22.788;2024-02-04T05:15:31;6.75;;;4.80;;
12212;SDS011;6169;44.158;22.788;2024-02-04T05:20:34;7.65;;;5.30;;
12212;SDS011;6169;44.158;22.788;2024-02-04T05:25:36;14.95;;;6.85;;
12212;SDS011;6169;44.158;22.788;2024-02-04T05:30:40;6.68;;;4.95;;
12212;SDS011;6169;44.158;22.788;2024-02-04T05:35:42;7.18;;;3.78;;
12212;SDS011;6169;44.158;22.788;2024-02-04T05:40:44;8.20;;;5.10;;
12212;SDS011;6169;44.158;22.788;2024-02-04T05:45:48;4.78;;;3.90;;
12212;SDS011;6169;44.158;22.788;2024-02-04T05:50:50;8.85;;;5.60;;
12212;SDS011;6169;44.158;22.788;2024-02-04T05:55:52;8.20;;;5.38;;
12212;SDS011;6169;44.158;22.788;2024-02-04T06:00:55;8.00;;;4.43;;
12212;SDS011;6169;44.158;22.788;2024-02-04T06:05:58;19.30;;;8.65;;
12212;SDS011;6169;44.158;22.788;2024-02-04T06:11:00;28.83;;;14.02;;
12212;SDS011;6169;44.158;22.788;2024-02-04T06:16:04;11.63;;;5.57;;
12212;SDS011;6169;44.158;22.788;2024-02-04T06:21:07;96.57;;;38.00;;
12212;SDS011;6169;44.158;22.788;2024-02-04T06:26:09;28.00;;;16.15;;
12212;SDS011;6169;44.158;22.788;2024-02-04T06:31:13;16.15;;;9.30;;
12212;SDS011;6169;44.158;22.788;2024-02-04T06:36:15;13.85;;;8.82;;
12212;SDS011;6169;44.158;22.788;2024-02-04T06:41:17;20.80;;;12.10;;
12212;SDS011;6169;44.158;22.788;2024-02-04T06:46:27;7.00;;;5.63;;
12212;SDS011;6169;44.158;22.788;2024-02-04T06:51:29;4.63;;;2.95;;
12212;SDS011;6169;44.158;22.788;2024-02-04T06:56:31;2.38;;;2.17;;
12212;SDS011;6169;44.158;22.788;2024-02-04T07:01:36;5.00;;;2.63;;
12212;SDS011;6169;44.158;22.788;2024-02-04T07:06:38;5.93;;;2.90;;
12212;SDS011;6169;44.158;22.788;2024-02-04T07:11:40;2.30;;;2.10;;
12212;SDS011;6169;44.158;22.788;2024-02-04T07:16:44;2.67;;;2.47;;
12212;SDS011;6169;44.158;22.788;2024-02-04T07:21:46;3.65;;;2.67;;
12212;SDS011;6169;44.158;22.788;2024-02-04T07:26:48;3.88;;;2.55;;
12212;SDS011;6169;44.158;22.788;2024-02-04T07:31:51;2.65;;;2.45;;
12212;SDS011;6169;44.158;22.788;2024-02-04T07:36:54;4.50;;;2.60;;
12212;SDS011;6169;44.158;22.788;2024-02-04T07:41:56;3.70;;;2.63;;
12212;SDS011;6169;44.158;22.788;2024-02-04T07:47:01;3.95;;;3.20;;
12212;SDS011;6169;44.158;22.788;2024-02-04T07:52:04;11.57;;;7.65;;
12212;SDS011;6169;44.158;22.788;2024-02-04T07:57:06;6.05;;;3.47;;
12212;SDS011;6169;44.158;22.788;2024-02-04T08:02:10;2.45;;;1.80;;
12212;SDS011;6169;44.158;22.788;2024-02-04T08:07:12;3.58;;;2.28;;
12212;SDS011;6169;44.158;22.788;2024-02-04T08:12:14;3.50;;;2.50;;
12212;SDS011;6169;44.158;22.788;2024-02-04T08:17:18;5.22;;;1.85;;
12212;SDS011;6169;44.158;22.788;2024-02-04T08:22:20;3.45;;;1.90;;
12212;SDS011;6169;44.158;22.788;2024-02-04T08:27:22;2.42;;;1.55;;
12212;SDS011;6169;44.158;22.788;2024-02-04T08:32:26;11.05;;;5.95;;
12212;SDS011;6169;44.158;22.788;2024-02-04T08:37:28;8.55;;;6.32;;
12212;SDS011;6169;44.158;22.788;2024-02-04T08:42:30;4.18;;;3.70;;
12212;SDS011;6169;44.158;22.788;2024-02-04T08:47:33;9.15;;;6.07;;
12212;SDS011;6169;44.158;22.788;2024-02-04T08:52:35;3.17;;;2.35;;
12212;SDS011;6169;44.158;22.788;2024-02-04T08:57:37;3.67;;;2.95;;
12212;SDS011;6169;44.158;22.788;2024-02-04T09:02:41;5.93;;;3.53;;
12212;SDS011;6169;44.158;22.788;2024-02-04T09:07:43;3.42;;;1.95;;
12212;SDS011;6169;44.158;22.788;2024-02-04T09:12:45;3.25;;;2.05;;
12212;SDS011;6169;44.158;22.788;2024-02-04T09:17:49;11.18;;;7.72;;
12212;SDS011;6169;44.158;22.788;2024-02-04T09:22:51;4.13;;;2.63;;
12212;SDS011;6169;44.158;22.788;2024-02-04T09:27:53;2.40;;;2.13;;
12212;SDS011;6169;44.158;22.788;2024-02-04T09:32:57;4.35;;;2.58;;
12212;SDS011;6169;44.158;22.788;2024-02-04T09:37:59;3.65;;;2.78;;
12212;SDS011;6169;44.158;22.788;2024-02-04T09:43:01;2.83;;;2.05;;
12212;SDS011;6169;44.158;22.788;2024-02-04T09:48:05;2.53;;;2.33;;
12212;SDS011;6169;44.158;22.788;2024-02-04T09:53:09;3.75;;;1.98;;
12212;SDS011;6169;44.158;22.788;2024-02-04T09:58:16;1.90;;;1.13;;
12212;SDS011;6169;44.158;22.788;2024-02-04T10:03:19;2.75;;;0.93;;
12212;SDS011;6169;44.158;22.788;2024-02-04T10:08:22;1.63;;;0.88;;
12212;SDS011;6169;44.158;22.788;2024-02-04T10:13:25;1.27;;;1.10;;
12212;SDS011;6169;44.158;22.788;2024-02-04T10:18:28;3.17;;;2.72;;
12212;SDS011;6169;44.158;22.788;2024-02-04T10:23:30;4.82;;;3.85;;
12212;SDS011;6169;44.158;22.788;2024-02-04T10:28:32;1.23;;;0.70;;
12212;SDS011;6169;44.158;22.788;2024-02-04T10:33:36;4.05;;;1.85;;
12212;SDS011;6169;44.158;22.788;2024-02-04T10:38:38;1.50;;;1.20;;
12212;SDS011;6169;44.158;22.788;2024-02-04T10:43:42;2.95;;;0.98;;
12212;SDS011;6169;44.158;22.788;2024-02-04T10:48:48;5.13;;;3.65;;
12212;SDS011;6169;44.158;22.788;2024-02-04T10:53:56;6.35;;;3.40;;
12212;SDS011;6169;44.158;22.788;2024-02-04T10:59:03;3.25;;;2.53;;
12212;SDS011;6169;44.158;22.788;2024-02-04T11:04:08;1.52;;;0.90;;
12212;SDS011;6169;44.158;22.788;2024-02-04T11:09:12;2.85;;;1.10;;
12212;SDS011;6169;44.158;22.788;2024-02-04T11:14:16;2.30;;;2.20;;
12212;SDS011;6169;44.158;22.788;2024-02-04T11:19:27;3.28;;;1.08;;
12212;SDS011;6169;44.158;22.788;2024-02-04T11:24:51;3.85;;;1.92;;
12212;SDS011;6169;44.158;22.788;2024-02-04T11:30:01;5.75;;;2.65;;
12212;SDS011;6169;44.158;22.788;2024-02-04T11:35:06;1.58;;;1.05;;
12212;SDS011;6169;44.158;22.788;2024-02-04T11:40:14;3.50;;;2.20;;
12212;SDS011;6169;44.158;22.788;2024-02-04T11:45:19;1.38;;;1.15;;
12212;SDS011;6169;44.158;22.788;2024-02-04T11:50:28;5.15;;;2.15;;
12212;SDS011;6169;44.158;22.788;2024-02-04T11:55:32;1.75;;;1.33;;
12212;SDS011;6169;44.158;22.788;2024-02-04T12:00:35;1.92;;;1.83;;
12212;SDS011;6169;44.158;22.788;2024-02-04T12:05:39;3.42;;;2.47;;
12212;SDS011;6169;44.158;22.788;2024-02-04T12:10:42;2.00;;;1.27;;
12212;SDS011;6169;44.158;22.788;2024-02-04T12:15:44;4.30;;;2.55;;
12212;SDS011;6169;44.158;22.788;2024-02-04T12:20:48;3.42;;;1.30;;
12212;SDS011;6169;44.158;22.788;2024-02-04T12:25:51;1.65;;;0.88;;
12212;SDS011;6169;44.158;22.788;2024-02-04T12:30:53;1.60;;;1.50;;
12212;SDS011;6169;44.158;22.788;2024-02-04T12:35:57;1.48;;;0.98;;
12212;SDS011;6169;44.158;22.788;2024-02-04T12:41:01;1.27;;;0.70;;
12212;SDS011;6169;44.158;22.788;2024-02-04T12:46:04;2.15;;;1.13;;
12212;SDS011;6169;44.158;22.788;2024-02-04T12:51:09;2.35;;;1.13;;
12212;SDS011;6169;44.158;22.788;2024-02-04T12:56:12;2.63;;;1.58;;
12212;SDS011;6169;44.158;22.788;2024-02-04T13:01:14;6.15;;;4.03;;
12212;SDS011;6169;44.158;22.788;2024-02-04T13:06:17;5.10;;;2.60;;
12212;SDS011;6169;44.158;22.788;2024-02-04T13:11:20;3.40;;;2.47;;
12212;SDS011;6169;44.158;22.788;2024-02-04T13:16:23;6.43;;;4.15;;
12212;SDS011;6169;44.158;22.788;2024-02-04T13:21:27;2.13;;;1.75;;
12212;SDS011;6169;44.158;22.788;2024-02-04T13:26:30;1.65;;;1.30;;
12212;SDS011;6169;44.158;22.788;2024-02-04T13:31:32;2.03;;;1.48;;
12212;SDS011;6169;44.158;22.788;2024-02-04T13:36:35;2.00;;;1.80;;
12212;SDS011;6169;44.158;22.788;2024-02-04T13:41:38;2.95;;;1.55;;
12212;SDS011;6169;44.158;22.788;2024-02-04T13:46:40;1.83;;;1.63;;
12212;SDS011;6169;44.158;22.788;2024-02-04T13:51:44;2.17;;;1.58;;
12212;SDS011;6169;44.158;22.788;2024-02-04T13:56:46;15.38;;;9.68;;
12212;SDS011;6169;44.158;22.788;2024-02-04T14:01:48;10.77;;;6.55;;
12212;SDS011;6169;44.158;22.788;2024-02-04T14:06:52;9.85;;;6.15;;
12212;SDS011;6169;44.158;22.788;2024-02-04T14:11:54;9.35;;;7.00;;
12212;SDS011;6169;44.158;22.788;2024-02-04T14:16:56;8.77;;;5.75;;
12212;SDS011;6169;44.158;22.788;2024-02-04T14:22:00;10.00;;;5.93;;
12212;SDS011;6169;44.158;22.788;2024-02-04T14:27:02;17.52;;;9.23;;
12212;SDS011;6169;44.158;22.788;2024-02-04T14:32:05;6.93;;;4.75;;
12212;SDS011;6169;44.158;22.788;2024-02-04T14:37:09;19.60;;;10.48;;
12212;SDS011;6169;44.158;22.788;2024-02-04T14:42:12;19.92;;;11.18;;
12212;SDS011;6169;44.158;22.788;2024-02-04T14:47:14;8.23;;;4.90;;
12212;SDS011;6169;44.158;22.788;2024-02-04T14:52:18;22.60;;;8.45;;
12212;SDS011;6169;44.158;22.788;2024-02-04T14:57:20;17.98;;;8.98;;
12212;SDS011;6169;44.158;22.788;2024-02-04T15:02:22;13.15;;;7.22;;
12212;SDS011;6169;44.158;22.788;2024-02-04T15:07:25;9.35;;;6.30;;
12212;SDS011;6169;44.158;22.788;2024-02-04T15:12:28;3.85;;;2.47;;
12212;SDS011;6169;44.158;22.788;2024-02-04T15:17:30;4.82;;;3.45;;
12212;SDS011;6169;44.158;22.788;2024-02-04T15:22:35;13.90;;;6.95;;
12212;SDS011;6169;44.158;22.788;2024-02-04T15:27:37;5.35;;;3.97;;
12212;SDS011;6169;44.158;22.788;2024-02-04T15:32:40;12.63;;;8.15;;
12212;SDS011;6169;44.158;22.788;2024-02-04T15:37:44;26.33;;;13.43;;
12212;SDS011;6169;44.158;22.788;2024-02-04T15:42:47;37.05;;;17.67;;
12212;SDS011;6169;44.158;22.788;2024-02-04T15:47:49;31.00;;;13.65;;
12212;SDS011;6169;44.158;22.788;2024-02-04T15:52:55;49.42;;;25.45;;
12212;SDS011;6169;44.158;22.788;2024-02-04T15:57:58;27.73;;;16.38;;
12212;SDS011;6169;44.158;22.788;2024-02-04T16:03:01;23.75;;;14.27;;
12212;SDS011;6169;44.158;22.788;2024-02-04T16:08:06;18.50;;;10.48;;
12212;SDS011;6169;44.158;22.788;2024-02-04T16:13:11;15.07;;;8.05;;
12212;SDS011;6169;44.158;22.788;2024-02-04T16:18:14;15.15;;;6.50;;
12212;SDS011;6169;44.158;22.788;2024-02-04T16:23:18;9.20;;;4.38;;
12212;SDS011;6169;44.158;22.788;2024-02-04T16:28:20;12.43;;;3.97;;
12212;SDS011;6169;44.158;22.788;2024-02-04T16:33:22;9.32;;;4.65;;
12212;SDS011;6169;44.158;22.788;2024-02-04T16:38:25;11.63;;;6.60;;
12212;SDS011;6169;44.158;22.788;2024-02-04T16:43:28;5.20;;;3.25;;
12212;SDS011;6169;44.158;22.788;2024-02-04T16:48:30;6.55;;;3.78;;
12212;SDS011;6169;44.158;22.788;2024-02-04T16:53:34;13.25;;;6.97;;
12212;SDS011;6169;44.158;22.788;2024-02-04T16:58:37;6.13;;;3.63;;
12212;SDS011;6169;44.158;22.788;2024-02-04T17:03:39;5.53;;;3.05;;
12212;SDS011;6169;44.158;22.788;2024-02-04T17:08:43;7.78;;;3.28;;
12212;SDS011;6169;44.158;22.788;2024-02-04T17:13:49;3.53;;;1.92;;
12212;SDS011;6169;44.158;22.788;2024-02-04T17:18:52;6.15;;;3.55;;
12212;SDS011;6169;44.158;22.788;2024-02-04T17:24:07;2.08;;;0.80;;
12212;SDS011;6169;44.158;22.788;2024-02-04T17:29:16;0.65;;;0.30;;
12212;SDS011;6169;44.158;22.788;2024-02-04T17:34:19;2.03;;;1.10;;
12212;SDS011;6169;44.158;22.788;2024-02-04T17:39:22;4.97;;;3.15;;
12212;SDS011;6169;44.158;22.788;2024-02-04T17:44:27;4.35;;;2.00;;
12212;SDS011;6169;44.158;22.788;2024-02-04T17:49:29;3.17;;;0.70;;
12212;SDS011;6169;44.158;22.788;2024-02-04T17:54:33;1.77;;;1.08;;
12212;SDS011;6169;44.158;22.788;2024-02-04T17:59:37;2.25;;;1.70;;
12212;SDS011;6169;44.158;22.788;2024-02-04T18:04:39;1.77;;;1.20;;
12212;SDS011;6169;44.158;22.788;2024-02-04T18:09:43;1.27;;;0.88;;
12212;SDS011;6169;44.158;22.788;2024-02-04T18:14:45;1.35;;;1.00;;
12212;SDS011;6169;44.158;22.788;2024-02-04T18:19:47;2.63;;;1.98;;
12212;SDS011;6169;44.158;22.788;2024-02-04T18:24:51;1.90;;;1.60;;
12212;SDS011;6169;44.158;22.788;2024-02-04T18:29:53;5.55;;;4.45;;
12212;SDS011;6169;44.158;22.788;2024-02-04T18:34:57;1.98;;;1.08;;
12212;SDS011;6169;44.158;22.788;2024-02-04T18:40:02;2.58;;;1.33;;
12212;SDS011;6169;44.158;22.788;2024-02-04T18:45:05;4.72;;;1.30;;
12212;SDS011;6169;44.158;22.788;2024-02-04T18:50:07;2.85;;;1.20;;
12212;SDS011;6169;44.158;22.788;2024-02-04T18:55:11;2.42;;;1.30;;
12212;SDS011;6169;44.158;22.788;2024-02-04T19:00:15;1.25;;;1.13;;
12212;SDS011;6169;44.158;22.788;2024-02-04T19:05:17;3.13;;;1.90;;
12212;SDS011;6169;44.158;22.788;2024-02-04T19:10:21;2.20;;;1.30;;
12212;SDS011;6169;44.158;22.788;2024-02-04T19:15:23;1.90;;;0.80;;
12212;SDS011;6169;44.158;22.788;2024-02-04T19:20:25;7.13;;;2.00;;
12212;SDS011;6169;44.158;22.788;2024-02-04T19:25:29;2.40;;;1.48;;
12212;SDS011;6169;44.158;22.788;2024-02-04T19:30:31;2.20;;;2.00;;
12212;SDS011;6169;44.158;22.788;2024-02-04T19:35:39;3.00;;;2.70;;
12212;SDS011;6169;44.158;22.788;2024-02-04T19:40:42;2.50;;;1.55;;
12212;SDS011;6169;44.158;22.788;2024-02-04T19:45:44;2.60;;;1.67;;
12212;SDS011;6169;44.158;22.788;2024-02-04T19:50:47;3.50;;;2.65;;
12212;SDS011;6169;44.158;22.788;2024-02-04T19:55:50;1.75;;;1.27;;
12212;SDS011;6169;44.158;22.788;2024-02-04T20:00:53;2.45;;;1.90;;
12212;SDS011;6169;44.158;22.788;2024-02-04T20:05:55;1.25;;;1.13;;
12212;SDS011;6169;44.158;22.788;2024-02-04T20:10:59;2.53;;;1.10;;
12212;SDS011;6169;44.158;22.788;2024-02-04T20:16:01;3.58;;;1.60;;
12212;SDS011;6169;44.158;22.788;2024-02-04T20:21:05;2.38;;;2.15;;
12212;SDS011;6169;44.158;22.788;2024-02-04T20:26:09;5.32;;;4.43;;
12212;SDS011;6169;44.158;22.788;2024-02-04T20:31:11;2.90;;;1.30;;
12212;SDS011;6169;44.158;22.788;2024-02-04T20:36:14;2.70;;;2.08;;
12212;SDS011;6169;44.158;22.788;2024-02-04T20:41:17;4.90;;;3.50;;
12212;SDS011;6169;44.158;22.788;2024-02-04T20:46:20;4.45;;;2.72;;
12212;SDS011;6169;44.158;22.788;2024-02-04T20:51:22;3.90;;;2.60;;
12212;SDS011;6169;44.158;22.788;2024-02-04T20:56:25;4.13;;;2.60;;
12212;SDS011;6169;44.158;22.788;2024-02-04T21:01:29;4.47;;;2.47;;
12212;SDS011;6169;44.158;22.788;2024-02-04T21:06:32;2.10;;;2.00;;
12212;SDS011;6169;44.158;22.788;2024-02-04T21:11:37;5.20;;;2.55;;
12212;SDS011;6169;44.158;22.788;2024-02-04T21:16:39;8.05;;;2.88;;
12212;SDS011;6169;44.158;22.788;2024-02-04T21:21:41;5.07;;;2.72;;
12212;SDS011;6169;44.158;22.788;2024-02-04T21:26:45;13.65;;;6.38;;
12212;SDS011;6169;44.158;22.788;2024-02-04T21:31:47;7.88;;;4.32;;
12212;SDS011;6169;44.158;22.788;2024-02-04T21:36:52;6.72;;;4.13;;
12212;SDS011;6169;44.158;22.788;2024-02-04T21:41:57;5.82;;;3.65;;
12212;SDS011;6169;44.158;22.788;2024-02-04T21:47:01;5.70;;;4.28;;
12212;SDS011;6169;44.158;22.788;2024-02-04T21:52:03;5.78;;;3.22;;
12212;SDS011;6169;44.158;22.788;2024-02-04T21:57:07;5.57;;;3.47;;
12212;SDS011;6169;44.158;22.788;2024-02-04T22:02:09;8.80;;;4.07;;
12212;SDS011;6169;44.158;22.788;2024-02-04T22:07:12;8.07;;;3.58;;
12212;SDS011;6169;44.158;22.788;2024-02-04T22:12:16;7.10;;;4.47;;
12212;SDS011;6169;44.158;22.788;2024-02-04T22:17:18;7.65;;;3.58;;
12212;SDS011;6169;44.158;22.788;2024-02-04T22:22:20;5.32;;;3.40;;
12212;SDS011;6169;44.158;22.788;2024-02-04T22:27:25;8.20;;;4.32;;
12212;SDS011;6169;44.158;22.788;2024-02-04T22:32:28;6.20;;;3.15;;
12212;SDS011;6169;44.158;22.788;2024-02-04T22:37:30;5.80;;;3.40;;
12212;SDS011;6169;44.158;22.788;2024-02-04T22:42:33;6.15;;;3.63;;
12212;SDS011;6169;44.158;22.788;2024-02-04T22:47:35;5.88;;;3.58;;
12212;SDS011;6169;44.158;22.788;2024-02-04T22:52:37;5.03;;;3.97;;
12212;SDS011;6169;44.158;22.788;2024-02-04T22:57:41;5.82;;;4.32;;
12212;SDS011;6169;44.158;22.788;2024-02-04T23:02:43;7.35;;;3.33;;
12212;SDS011;6169;44.158;22.788;2024-02-04T23:07:45;4.25;;;3.17;;
12212;SDS011;6169;44.158;22.788;2024-02-04T23:12:49;8.63;;;4.80;;
12212;SDS011;6169;44.158;22.788;2024-02-04T23:17:51;7.05;;;4.47;;
12212;SDS011;6169;44.158;22.788;2024-02-04T23:22:53;6.93;;;3.97;;
12212;SDS011;6169;44.158;22.788;2024-02-04T23:27:57;7.05;;;3.60;;
12212;SDS011;6169;44.158;22.788;2024-02-04T23:32:59;6.32;;;4.20;;
12212;SDS011;6169;44.158;22.788;2024-02-04T23:38:01;4.50;;;3.70;;
12212;SDS011;6169;44.158;22.788;2024-02-04T23:43:05;4.88;;;3.35;;
12212;SDS011;6169;44.158;22.788;2024-02-04T23:48:07;5.50;;;3.35;;
12212;SDS011;6169;44.158;22.788;2024-02-04T23:53:09;8.23;;;4.47;;
12212;SDS011;6169;44.158;22.788;2024-02-04T23:58:13;5.93;;;3.75;;
